• Join FlightAware (Why Join?)
  • Login
  • US Flag 
11:07PM EDT


 

Airport Tracker/Info


-or-


 

Live Flight TrackerFlight Track Log ✈ N22VK ✈ 19-Jun-2013 ✈ KSUA - KRYY

Flight Track Log - Related Links

Times and Time Zones

All times are in EDT time to prevent confusion due to time zone crossing. See the N22VK flight status page for this flight to view local times or setup timezone preferences in your user account.

Time Position Orientation Groundspeed Altitude Reporting Facility
EDT Latitude Longitude Course Direction KTS MPH feet Rate Location/Type
06:32PM 27.1617 -80.1997 329° Northwest 149 171 1,700  Level Miami Center
06:33PM 27.1394 -80.2528 245° Southwest 219 252 3,700 1,620 Climbing Miami Center
06:34PM 27.1583 -80.3350 284° West 374 430 5,000 1,800 Climbing Miami Center
06:35PM 27.1839 -80.4081 291° West 323 372 7,300 2,100 Climbing Miami Center
06:36PM 27.2214 -80.4911 297° West 295 339 9,200 2,100 Climbing Miami Center
06:37PM 27.2908 -80.5517 322° Northwest 279 321 11,600 2,100 Climbing Miami Center
06:38PM 27.4129 -80.6419 329° Northwest  Level FlightAware Approximate
06:38PM 27.3767 -80.5450 North 270 311 13,400  Level Miami Center
06:39PM 27.4689 -80.5317 North 309 356 15,400 1,860 Climbing Miami Center
06:40PM 27.5508 -80.5061 15° North 333 383 17,200 1,500 Climbing Miami Center
06:41PM 27.6433 -80.4808 14° North 338 389 18,500 1,500 Climbing Miami Center
06:42PM 27.7378 -80.4581 12° North 338 389 20,200 1,500 Climbing Miami Center
06:43PM 27.8364 -80.4378 10° North 344 396 21,600 1,260 Climbing Miami Center
06:44PM 27.9394 -80.4106 13° North 363 418 22,800 1,020 Climbing Miami Center
06:45PM 28.0425 -80.3831 13° North 377 434 23,700 900 Climbing Miami Center
06:46PM 28.1597 -80.3633 North 377 434 24,700 900 Climbing Miami Center
06:47PM 28.2728 -80.3525 North 383 441 25,600 900 Climbing Miami Center
06:48PM 28.3731 -80.3439 North 389 448 26,600 960 Climbing Miami Center
06:49PM 28.4817 -80.3378 North 394 453 27,600 960 Climbing Miami Center
06:51PM 28.6856 -80.3178 North 403 464 29,300 960 Climbing Jacksonville Center
06:52PM 28.7981 -80.3056 North 403 464 30,300 840 Climbing Jacksonville Center
06:53PM 28.9067 -80.3169 355° North 397 457 31,000 300 Climbing Jacksonville Center
06:54PM 29.0022 -80.3928 325° Northwest 392 451 31,000  Level Jacksonville Center
06:55PM 29.0833 -80.4928 313° West 408 470 31,000  Level Jacksonville Center
06:56PM 29.1808 -80.5808 322° Northwest 422 486 31,000  Level Jacksonville Center
06:57PM 29.2844 -80.6522 329° Northwest 440 506 31,000 60 Level Jacksonville Center
06:58PM 29.3817 -80.7239 327° Northwest 446 513 31,200 600 Climbing Jacksonville Center
06:59PM 29.4769 -80.7956 327° Northwest 438 504 32,300 900 Climbing Jacksonville Center
07:00PM 29.5761 -80.8700 327° Northwest 424 488 33,000 300 Climbing Jacksonville Center
07:01PM 29.6775 -80.9419 328° Northwest 424 488 33,000  Level Jacksonville Center
07:02PM 29.7789 -81.0167 327° Northwest 424 488 33,000  Level Jacksonville Center
07:03PM 29.8639 -81.1178 314° West 429 494 33,000 180 Level Jacksonville Center
07:04PM 29.9467 -81.2219 313° West 429 494 33,400 720 Climbing Jacksonville Center
07:05PM 30.0272 -81.3211 313° West 429 494 34,500 1,140 Climbing Jacksonville Center
07:06PM 30.1033 -81.4158 313° West 423 487 35,700 1,140 Climbing Jacksonville Center
07:07PM 30.1756 -81.5133 311° West 413 475 36,800 600 Climbing Jacksonville Center
07:08PM 30.2475 -81.6086 311° West 402 463 37,000 60 Climbing Jacksonville Center
07:09PM 30.3281 -81.7231 309° West 402 463 37,000  Level Jacksonville Center
07:10PM 30.4042 -81.8281 310° West 417 480 37,000  Level Jacksonville Center
07:11PM 30.4781 -81.9356 309° West 422 486 37,000  Level Jacksonville Center
07:12PM 30.5539 -82.0433 309° West 422 486 37,000  Level Jacksonville Center
07:13PM 30.6361 -82.1633 309° West 450 518 37,000  Level Jacksonville Center
07:14PM 30.7139 -82.2692 311° West 445 512 37,000  Level Jacksonville Center
07:15PM 30.7958 -82.3775 311° West 440 506 37,000  Level Jacksonville Center
07:16PM 30.9025 -82.4422 333° Northwest 425 489 37,000 -60 Level Jacksonville Center
07:17PM 31.0258 -82.4731 348° North 433 498 36,900  Descending Jacksonville Center
07:18PM 31.1469 -82.5067 347° North 438 504 37,000  Climbing Jacksonville Center
07:19PM 31.2703 -82.5353 349° North 443 510 37,000  Level Jacksonville Center
07:20PM 31.3811 -82.5544 352° North 443 510 37,000 -180 Level Jacksonville Center
07:21PM 31.5064 -82.5831 349° North 453 521 36,700 -900 Descending Jacksonville Center
07:22PM 31.6358 -82.6144 348° North 459 528 35,300 -900 Descending Jacksonville Center
07:25PM 32.0483 -82.7108 349° North 472 543 33,000 -1,020 Descending Atlanta Center
07:26PM 32.1803 -82.7408 349° North 472 543 31,300 -1,800 Descending Atlanta Center
07:27PM 32.3078 -82.7708 349° North 472 543 29,400 -1,800 Descending Atlanta Center
07:28PM 32.4375 -82.8008 349° North 467 537 27,700 -1,200 Descending Atlanta Center
07:29PM 32.5422 -82.8314 346° North 458 527 27,000 -600 Descending Atlanta Center
07:30PM 32.6431 -82.9114 326° Northwest 431 496 26,500 -1,080 Descending Atlanta Center
07:31PM 32.7400 -83.0264 315° West 436 502 24,900 -1,320 Descending Atlanta Center
07:32PM 32.7911 -83.1344 299° West 417 480 23,900 -960 Descending Atlanta Center
07:33PM 32.8358 -83.2478 295° West 382 440 23,000 -480 Descending Atlanta Center
07:34PM 32.8822 -83.3511 298° West 370 426 23,000 -600 Level Atlanta Center
07:35PM 32.9619 -83.4247 322° Northwest 355 409 21,800 -1,620 Descending Atlanta Center
07:36PM 33.0519 -83.4761 334° Northwest 355 409 19,800 -1,920 Descending Atlanta Center
07:37PM 33.1314 -83.5278 331° Northwest 335 386 18,000 -1,980 Descending Atlanta Center
07:38PM 33.2111 -83.5672 338° Northwest 312 359 15,900 -2,340 Descending Atlanta Center
07:39PM 33.2864 -83.6089 335° Northwest 299 344 13,400 -2,280 Descending Atlanta Center
07:40PM 33.3333 -83.6333 336° Northwest 288 331 12,100 -1,440 Descending Atlanta TRACON
07:41PM 33.4000 -83.6833 328° Northwest 289 333 11,000 -1,200 Descending Atlanta TRACON
07:42PM 33.4667 -83.7333 328° Northwest 282 325 9,800 -1,320 Descending Atlanta TRACON
07:43PM 33.5333 -83.7833 328° Northwest 285 328 8,400 -960 Descending Atlanta TRACON
07:44PM 33.6000 -83.8167 337° Northwest 275 316 7,900 -1,020 Descending Atlanta TRACON
07:45PM 33.6833 -83.8333 351° North 275 316 6,400 -960 Descending Atlanta TRACON
07:46PM 33.7500 -83.8500 348° North 257 296 6,000 -240 Descending Atlanta TRACON
07:47PM 33.8167 -83.8667 348° North 261 300 6,000  Level Atlanta TRACON
07:48PM 33.8833 -83.9000 337° Northwest 263 303 6,000  Level Atlanta TRACON
07:49PM 33.9333 -83.9667 312° West 260 299 6,000  Level Atlanta TRACON
07:50PM 33.9500 -84.0500 284° West 245 282 6,000  Level Atlanta TRACON
07:51PM 33.9667 -84.1167 287° West 235 270 6,000  Level Atlanta TRACON
07:52PM 34.0000 -84.2000 296° West 232 267 6,000  Level Atlanta TRACON
07:53PM 34.0167 -84.2500 292° West 235 270 6,000 -240 Level Atlanta TRACON
07:54PM 34.0333 -84.3333 284° West 246 283 5,600 -840 Descending Atlanta TRACON
07:55PM 34.0333 -84.4333 270° West 243 280 4,300 -1,260 Descending Atlanta TRACON
07:56PM 34.0333 -84.5000 270° West 225 259 3,000 -900 Descending Atlanta TRACON
07:57PM 34.0500 -84.5667 287° West 188 216 2,600 -300 Descending Atlanta TRACON
07:58PM 34.0500 -84.6333 270° West 168 193 2,400 -420 Descending Atlanta TRACON
07:59PM 34.0167 -84.6500 203° Southwest 149 171 1,800 -300 Descending Atlanta TRACON
08:00PM 34.0000 -84.6500 180° South 127 146 1,800  Level Atlanta TRACON